createdAt,value
2023-01-25T00:01:17.069Z,91.93
2023-01-25T00:03:44.927Z,91.92
2023-01-25T00:06:12.834Z,91.90
2023-01-25T00:08:40.963Z,91.89
2023-01-25T00:11:08.884Z,91.86
2023-01-25T00:13:36.840Z,91.84
2023-01-25T00:16:05.315Z,91.80
2023-01-25T00:18:33.446Z,91.77
2023-01-25T00:21:15.807Z,91.72
2023-01-25T00:23:43.977Z,91.69
2023-01-25T00:26:12.563Z,91.65
2023-01-25T00:28:40.744Z,91.58
2023-01-25T00:31:16.764Z,91.54
2023-01-25T00:33:52.336Z,91.43
2023-01-25T00:36:29.097Z,91.30
2023-01-25T00:38:57.794Z,91.20
2023-01-25T00:41:26.395Z,91.11
2023-01-25T00:43:55.100Z,91.01
2023-01-25T00:46:23.238Z,90.97
2023-01-25T00:48:54.736Z,90.91
2023-01-25T00:51:23.845Z,90.86
2023-01-25T00:53:52.494Z,90.82
2023-01-25T00:56:20.556Z,90.78
2023-01-25T00:58:48.632Z,90.71
2023-01-25T01:01:18.639Z,90.61
2023-01-25T01:03:46.595Z,90.53
2023-01-25T01:06:14.654Z,90.46
2023-01-25T01:08:42.733Z,90.42
2023-01-25T01:11:12.654Z,90.39
2023-01-25T01:13:40.848Z,90.36
2023-01-25T01:16:12.101Z,90.25
2023-01-25T01:18:45.805Z,90.14
2023-01-25T01:21:14.413Z,89.97
2023-01-25T01:23:42.432Z,89.85
2023-01-25T01:26:13.390Z,89.77
2023-01-25T01:28:42.237Z,89.73
2023-01-25T01:31:21.745Z,89.72
2023-01-25T01:34:00.912Z,89.71
2023-01-25T01:36:35.280Z,89.63
2023-01-25T01:39:03.611Z,89.62
2023-01-25T01:41:31.550Z,89.57
2023-01-25T01:43:59.923Z,89.53
2023-01-25T01:46:30.013Z,89.50
2023-01-25T01:49:16.670Z,89.46
2023-01-25T01:51:57.817Z,89.46
2023-01-25T01:54:34.930Z,89.44
2023-01-25T01:57:14.962Z,89.41
2023-01-25T01:59:51.005Z,89.32
2023-01-25T02:05:03.369Z,89.23
2023-01-25T02:07:35.323Z,89.26
2023-01-25T02:10:07.023Z,89.23
2023-01-25T02:12:37.141Z,89.15
2023-01-25T02:15:07.097Z,89.12
2023-01-25T02:17:37.625Z,89.10
2023-01-25T02:20:08.494Z,88.98
2023-01-25T02:22:44.127Z,88.84
2023-01-25T02:25:14.288Z,88.76
2023-01-25T02:27:53.224Z,88.67
2023-01-25T02:30:21.415Z,88.58
2023-01-25T02:32:49.643Z,88.57
2023-01-25T02:35:22.493Z,88.52
2023-01-25T02:37:51.846Z,88.44
2023-01-25T02:40:20.390Z,88.29
2023-01-25T02:42:48.657Z,88.14
2023-01-25T02:45:19.665Z,87.98
2023-01-25T02:47:48.695Z,87.85
2023-01-25T02:50:17.299Z,87.81
2023-01-25T02:52:45.314Z,87.75
2023-01-25T02:55:13.434Z,87.74
2023-01-25T02:57:42.006Z,87.73
2023-01-25T03:00:10.970Z,87.78
2023-01-25T03:02:38.909Z,87.79
2023-01-25T03:05:07.538Z,87.80
2023-01-25T03:07:36.128Z,87.81
2023-01-25T03:10:05.551Z,87.75
2023-01-25T03:12:34.956Z,87.81
2023-01-25T03:15:03.906Z,87.74
2023-01-25T03:17:31.959Z,87.71
2023-01-25T03:19:59.772Z,87.69
2023-01-25T03:22:27.830Z,87.69
2023-01-25T03:24:57.338Z,87.70
2023-01-25T03:27:25.419Z,87.69
2023-01-25T03:30:03.977Z,87.65
2023-01-25T03:32:33.939Z,87.61
2023-01-25T03:35:06.620Z,87.61
2023-01-25T03:37:34.745Z,87.70
2023-01-25T03:40:05.097Z,87.71
2023-01-25T03:42:33.687Z,87.68
2023-01-25T03:45:02.101Z,87.60
2023-01-25T03:47:30.097Z,87.60
2023-01-25T03:49:58.218Z,87.47
2023-01-25T03:52:42.133Z,87.37
2023-01-25T03:55:15.505Z,87.31
2023-01-25T03:57:43.734Z,87.33
2023-01-25T04:04:55.368Z,87.39
2023-01-25T04:07:23.945Z,87.36
2023-01-25T04:09:52.172Z,87.32
2023-01-25T04:12:20.253Z,87.31
2023-01-25T04:14:48.208Z,87.27
2023-01-25T04:17:22.715Z,87.10
2023-01-25T04:19:54.238Z,86.97
2023-01-25T04:22:25.811Z,86.95
2023-01-25T04:24:55.358Z,86.99
2023-01-25T04:27:23.567Z,87.02
2023-01-25T04:34:37.898Z,86.98
2023-01-25T04:37:08.444Z,87.00
2023-01-25T04:39:43.482Z,87.07
2023-01-25T04:42:11.571Z,87.15
2023-01-25T04:44:39.789Z,87.19
2023-01-25T04:47:07.823Z,87.24
2023-01-25T04:49:35.913Z,87.29
2023-01-25T04:52:04.286Z,87.29
2023-01-25T04:54:32.591Z,87.24
2023-01-25T04:57:00.736Z,87.25
2023-01-25T04:59:29.031Z,87.24
2023-01-25T05:01:56.976Z,87.26
2023-01-25T05:04:25.267Z,87.29
2023-01-25T05:06:53.471Z,87.36
2023-01-25T05:09:21.721Z,87.43
2023-01-25T05:11:49.887Z,87.47
2023-01-25T05:14:26.218Z,87.50
2023-01-25T05:16:54.506Z,87.53
2023-01-25T05:19:23.307Z,87.52
2023-01-25T05:22:00.337Z,87.51
2023-01-25T05:24:34.103Z,87.52
2023-01-25T05:27:05.024Z,87.55
2023-01-25T05:29:53.562Z,87.60
2023-01-25T05:32:24.623Z,87.64
2023-01-25T05:34:52.869Z,87.68
2023-01-25T05:37:22.072Z,87.71
2023-01-25T05:39:56.194Z,87.69
2023-01-25T05:42:24.949Z,87.69
2023-01-25T05:44:54.014Z,87.71
2023-01-25T05:47:22.010Z,87.73
2023-01-25T05:49:49.997Z,87.76
2023-01-25T05:52:26.967Z,87.76
2023-01-25T05:54:55.170Z,87.76
2023-01-25T05:57:24.882Z,87.76
2023-01-25T05:59:52.853Z,87.78
2023-01-25T06:02:21.300Z,87.80
2023-01-25T06:04:49.364Z,87.83
2023-01-25T06:07:17.357Z,87.87
2023-01-25T06:09:45.628Z,87.89
2023-01-25T06:12:13.685Z,87.92
2023-01-25T06:14:42.480Z,87.96
2023-01-25T06:17:11.319Z,88.01
2023-01-25T06:20:12.446Z,88.03
2023-01-25T06:22:59.308Z,88.06
2023-01-25T06:25:27.812Z,88.09
2023-01-25T06:27:55.900Z,88.12
2023-01-25T06:30:24.009Z,88.14
2023-01-25T06:32:52.092Z,88.16
2023-01-25T06:35:20.105Z,88.16
2023-01-25T06:37:47.983Z,88.18
2023-01-25T06:40:16.435Z,88.20
2023-01-25T06:42:45.384Z,88.21
2023-01-25T06:45:13.598Z,88.21
2023-01-25T06:47:41.828Z,88.22
2023-01-25T06:50:10.807Z,88.24
2023-01-25T06:52:38.861Z,88.28
2023-01-25T06:55:10.365Z,88.32
2023-01-25T06:57:38.447Z,88.34
2023-01-25T07:00:06.966Z,88.35
2023-01-25T07:02:39.017Z,88.35
2023-01-25T07:05:07.617Z,88.34
2023-01-25T07:07:35.613Z,88.33
2023-01-25T07:10:04.243Z,88.31
2023-01-25T07:12:32.399Z,88.30
2023-01-25T07:15:00.377Z,88.29
2023-01-25T07:17:28.483Z,88.29
2023-01-25T07:19:56.377Z,88.29
2023-01-25T07:22:24.261Z,88.29
2023-01-25T07:24:53.906Z,88.27
2023-01-25T07:27:21.815Z,88.24
2023-01-25T07:29:49.720Z,88.21
2023-01-25T07:32:17.564Z,88.19
2023-01-25T07:34:46.328Z,88.16
2023-01-25T07:37:14.400Z,88.14
2023-01-25T07:39:48.190Z,88.11
2023-01-25T07:42:16.433Z,88.12
2023-01-25T07:44:52.687Z,88.14
2023-01-25T07:47:21.244Z,88.15
2023-01-25T07:49:49.287Z,88.15
2023-01-25T07:52:17.245Z,88.14
2023-01-25T07:54:48.390Z,88.13
2023-01-25T07:57:21.549Z,88.13
2023-01-25T07:59:52.389Z,88.13
2023-01-25T08:02:20.766Z,88.13
2023-01-25T08:04:48.946Z,88.12
2023-01-25T08:07:17.011Z,88.13
2023-01-25T08:09:44.943Z,88.12
2023-01-25T08:12:13.049Z,88.14
2023-01-25T08:14:41.014Z,88.16
2023-01-25T08:17:08.904Z,88.15
2023-01-25T08:19:37.106Z,88.14
2023-01-25T08:22:08.091Z,88.12
2023-01-25T08:24:36.070Z,88.13
2023-01-25T08:27:05.126Z,88.10
2023-01-25T08:29:32.992Z,88.08
2023-01-25T08:32:04.475Z,88.07
2023-01-25T08:34:32.499Z,88.05
2023-01-25T08:37:00.867Z,88.02
2023-01-25T08:39:28.876Z,88.02
2023-01-25T08:41:57.001Z,88.02
2023-01-25T08:44:26.051Z,88.00
2023-01-25T08:46:53.953Z,87.97
2023-01-25T08:49:21.921Z,87.94
2023-01-25T08:51:50.657Z,87.95
2023-01-25T08:54:19.014Z,87.96
2023-01-25T08:56:47.508Z,87.93
2023-01-25T08:59:15.427Z,87.93
2023-01-25T09:01:43.411Z,87.96
2023-01-25T09:04:12.412Z,87.97
2023-01-25T09:06:40.555Z,87.91
2023-01-25T09:09:08.737Z,87.92
2023-01-25T09:11:38.177Z,87.93
2023-01-25T09:14:06.422Z,87.89
2023-01-25T09:16:35.319Z,87.88
2023-01-25T09:19:05.382Z,87.84
2023-01-25T09:21:33.998Z,87.82
2023-01-25T09:24:09.289Z,87.85
2023-01-25T09:26:42.912Z,87.88
2023-01-25T09:29:12.239Z,87.90
2023-01-25T09:31:41.083Z,87.88
2023-01-25T09:34:41.652Z,87.90
2023-01-25T09:37:09.563Z,87.91
2023-01-25T09:39:37.513Z,87.88
2023-01-25T09:42:15.580Z,87.85
2023-01-25T09:45:00.900Z,87.86
2023-01-25T09:47:46.951Z,87.90
2023-01-25T09:50:27.785Z,87.93
2023-01-25T09:53:28.531Z,87.92
2023-01-25T09:56:01.373Z,87.87
2023-01-25T09:58:43.835Z,87.83
2023-01-25T10:01:39.093Z,87.81
2023-01-25T10:04:26.957Z,87.73
2023-01-25T10:07:02.030Z,87.64
2023-01-25T10:09:42.762Z,87.59
2023-01-25T10:12:22.665Z,87.61
2023-01-25T10:14:52.100Z,87.58
2023-01-25T10:17:40.546Z,87.58
2023-01-25T10:20:20.074Z,87.56
2023-01-25T10:22:53.282Z,87.52
2023-01-25T10:26:01.865Z,87.46
2023-01-25T10:29:02.852Z,87.32
2023-01-25T10:31:36.688Z,87.26
2023-01-25T10:34:24.353Z,87.13
2023-01-25T10:36:56.294Z,87.09
2023-01-25T10:39:24.375Z,87.06
2023-01-25T10:42:03.243Z,86.97
2023-01-25T10:44:31.396Z,86.94
2023-01-25T10:47:23.601Z,86.91
2023-01-25T10:49:56.891Z,86.98
2023-01-25T10:52:34.250Z,87.00
2023-01-25T10:55:14.311Z,87.00
2023-01-25T10:57:49.157Z,86.93
2023-01-25T11:04:36.979Z,86.93
2023-01-25T11:07:05.946Z,86.86
2023-01-25T11:09:39.234Z,86.90
2023-01-25T11:12:19.354Z,86.90
2023-01-25T11:14:49.966Z,86.89
2023-01-25T11:17:27.940Z,86.89
2023-01-25T11:20:18.556Z,86.88
2023-01-25T11:22:57.540Z,86.87
2023-01-25T11:25:44.424Z,86.85
2023-01-25T11:28:24.043Z,86.76
2023-01-25T11:30:53.391Z,86.74
2023-01-25T11:33:22.368Z,86.75
2023-01-25T11:36:30.984Z,86.79
2023-01-25T11:39:29.677Z,86.77
2023-01-25T11:42:31.576Z,86.71
2023-01-25T11:45:08.344Z,86.74
2023-01-25T11:47:57.456Z,86.77
2023-01-25T11:50:39.097Z,86.74
2023-01-25T11:53:26.006Z,86.69
2023-01-25T11:56:02.946Z,86.70
2023-01-25T11:59:12.080Z,86.74
2023-01-25T12:01:56.187Z,86.76
2023-01-25T12:04:49.834Z,86.82
2023-01-25T12:07:43.228Z,86.84
2023-01-25T12:10:26.942Z,86.86
2023-01-25T12:13:03.873Z,86.89
2023-01-25T12:16:09.934Z,86.92
2023-01-25T12:19:05.526Z,86.94
2023-01-25T12:21:42.419Z,86.96
2023-01-25T12:24:37.642Z,87.00
2023-01-25T12:27:25.976Z,87.03
2023-01-25T12:29:59.026Z,87.04
2023-01-25T12:32:50.648Z,87.06
2023-01-25T12:35:21.557Z,87.06
2023-01-25T12:37:53.050Z,87.07
2023-01-25T12:40:32.455Z,87.13
2023-01-25T12:43:01.688Z,87.14
2023-01-25T12:45:34.403Z,87.16
2023-01-25T12:48:30.204Z,87.15
2023-01-25T12:50:59.879Z,87.14
2023-01-25T12:53:36.187Z,87.13
2023-01-25T12:56:09.358Z,87.12
2023-01-25T12:59:30.640Z,87.08
2023-01-25T13:02:10.918Z,86.99
2023-01-25T13:05:00.183Z,86.97
2023-01-25T13:07:37.907Z,86.97
2023-01-25T13:10:12.458Z,86.97
2023-01-25T13:13:05.291Z,86.99
2023-01-25T13:15:45.016Z,87.01
2023-01-25T13:18:28.118Z,87.03
2023-01-25T13:20:58.288Z,87.09
2023-01-25T13:23:47.211Z,87.14
2023-01-25T13:26:20.969Z,87.15
2023-01-25T13:28:51.632Z,87.09
2023-01-25T13:31:51.089Z,87.06
2023-01-25T13:34:42.409Z,87.08
2023-01-25T13:37:19.187Z,87.08
2023-01-25T13:39:48.281Z,87.04
2023-01-25T13:42:28.115Z,86.99
2023-01-25T13:45:00.016Z,86.95
2023-01-25T13:47:39.638Z,86.95
2023-01-25T13:50:27.021Z,86.96
2023-01-25T13:53:00.677Z,87.05
2023-01-25T13:55:30.063Z,87.13
2023-01-25T13:58:34.359Z,87.15
2023-01-25T14:01:08.365Z,87.07
2023-01-25T14:03:50.366Z,87.01
2023-01-25T14:06:20.376Z,87.03
2023-01-25T14:08:50.476Z,87.06
2023-01-25T14:11:22.972Z,87.07
2023-01-25T14:14:17.065Z,87.06
2023-01-25T14:16:45.290Z,87.04
2023-01-25T14:19:29.818Z,87.05
2023-01-25T14:22:27.118Z,87.03
2023-01-25T14:25:11.968Z,87.02
2023-01-25T14:27:58.985Z,87.02
2023-01-25T14:30:30.623Z,87.02
2023-01-25T14:33:04.689Z,87.03
2023-01-25T14:38:27.825Z,86.98
2023-01-25T14:41:03.661Z,86.97
2023-01-25T14:43:32.547Z,87.00
2023-01-25T14:46:00.510Z,87.02
2023-01-25T14:48:42.400Z,87.05
2023-01-25T14:51:18.470Z,87.07
2023-01-25T14:53:50.875Z,87.08
2023-01-25T14:56:26.158Z,87.11
2023-01-25T14:58:59.858Z,87.11
2023-01-25T15:01:38.192Z,87.18
2023-01-25T15:04:12.957Z,87.23
2023-01-25T15:06:52.493Z,87.26
2023-01-25T15:09:43.234Z,87.26
2023-01-25T15:12:17.268Z,87.28
2023-01-25T15:14:49.716Z,87.31
2023-01-25T15:17:44.469Z,87.31
2023-01-25T15:20:40.617Z,87.30
2023-01-25T15:23:25.834Z,87.32
2023-01-25T15:25:59.388Z,87.35
2023-01-25T15:28:30.384Z,87.37
2023-01-25T15:30:59.478Z,87.36
2023-01-25T15:33:29.946Z,87.36
2023-01-25T15:35:58.840Z,87.36
2023-01-25T15:38:26.670Z,87.38
2023-01-25T15:41:00.872Z,87.39
2023-01-25T15:43:28.822Z,87.43
2023-01-25T15:45:57.707Z,87.44
2023-01-25T15:48:42.611Z,87.44
2023-01-25T15:51:12.632Z,87.43
2023-01-25T15:53:40.745Z,87.44
2023-01-25T15:56:15.827Z,87.42
2023-01-25T15:58:47.671Z,87.41
2023-01-25T16:01:15.445Z,87.40
2023-01-25T16:03:43.453Z,87.42
2023-01-25T16:06:34.702Z,87.41
2023-01-25T16:09:16.454Z,87.39
2023-01-25T16:11:45.448Z,87.38
2023-01-25T16:14:13.516Z,87.40
2023-01-25T16:16:47.707Z,87.41
2023-01-25T16:19:22.882Z,87.41
2023-01-25T16:21:51.421Z,87.40
2023-01-25T16:24:19.423Z,87.40
2023-01-25T16:26:53.481Z,87.41
2023-01-25T16:29:23.115Z,87.42
2023-01-25T16:31:52.389Z,87.42
2023-01-25T16:34:21.103Z,87.41
2023-01-25T16:36:53.140Z,87.42
2023-01-25T16:39:22.243Z,87.42
2023-01-25T16:41:51.004Z,87.43
2023-01-25T16:44:19.369Z,87.42
2023-01-25T16:46:51.196Z,87.41
2023-01-25T16:49:18.874Z,87.41
2023-01-25T16:51:48.973Z,87.41
2023-01-25T16:54:16.814Z,87.39
2023-01-25T16:56:44.650Z,87.36
2023-01-25T16:59:12.591Z,87.34
2023-01-25T17:01:42.523Z,87.34
2023-01-25T17:04:10.825Z,87.32
2023-01-25T17:06:43.019Z,87.32
2023-01-25T17:09:23.049Z,87.30
2023-01-25T17:11:52.868Z,87.31
2023-01-25T17:14:21.612Z,87.32
2023-01-25T17:16:51.853Z,87.34
2023-01-25T17:19:26.240Z,87.38
2023-01-25T17:21:54.210Z,87.38
2023-01-25T17:24:22.273Z,87.39
2023-01-25T17:26:51.472Z,87.42
2023-01-25T17:29:19.430Z,87.44
2023-01-25T17:31:48.405Z,87.44
2023-01-25T17:34:18.224Z,87.44
2023-01-25T17:36:46.636Z,87.45
2023-01-25T17:39:16.647Z,87.46
2023-01-25T17:41:46.030Z,87.50
2023-01-25T17:44:17.746Z,87.54
2023-01-25T17:46:45.637Z,87.57
2023-01-25T17:49:16.970Z,87.59
2023-01-25T17:51:45.358Z,87.63
2023-01-25T17:54:13.398Z,87.64
2023-01-25T17:56:41.366Z,87.66
2023-01-25T17:59:11.338Z,87.69
2023-01-25T18:01:39.971Z,87.70
2023-01-25T18:04:09.241Z,87.73
2023-01-25T18:06:37.298Z,87.74
2023-01-25T18:09:08.624Z,87.76
2023-01-25T18:11:38.266Z,87.78
2023-01-25T18:14:09.435Z,87.79
2023-01-25T18:16:39.613Z,87.80
2023-01-25T18:19:08.763Z,87.79
2023-01-25T18:21:37.515Z,87.82
2023-01-25T18:24:22.759Z,87.82
2023-01-25T18:26:52.031Z,87.80
2023-01-25T18:29:49.163Z,87.82
2023-01-25T18:32:17.164Z,87.83
2023-01-25T18:34:46.897Z,87.84
2023-01-25T18:37:18.678Z,87.85
2023-01-25T18:39:48.501Z,87.85
2023-01-25T18:42:16.491Z,87.84
2023-01-25T18:44:48.406Z,87.84
2023-01-25T18:47:21.357Z,87.83
2023-01-25T18:49:50.926Z,87.81
2023-01-25T18:52:21.943Z,87.79
2023-01-25T18:54:49.882Z,87.80
2023-01-25T18:57:18.233Z,87.79
2023-01-25T18:59:46.263Z,87.79
2023-01-25T19:04:34.877Z,87.76
2023-01-25T19:07:03.027Z,87.77
2023-01-25T19:09:31.340Z,87.81
2023-01-25T19:11:59.453Z,87.83
2023-01-25T19:14:27.524Z,87.86
2023-01-25T19:16:55.681Z,87.90
2023-01-25T19:19:23.872Z,87.94
2023-01-25T19:21:51.981Z,87.95
2023-01-25T19:24:20.872Z,87.96
2023-01-25T19:26:48.923Z,87.96
2023-01-25T19:29:17.100Z,87.96
2023-01-25T19:31:45.090Z,87.95
2023-01-25T19:34:13.345Z,87.94
2023-01-25T19:36:49.569Z,87.91
2023-01-25T19:39:18.263Z,87.87
2023-01-25T19:41:46.301Z,87.86
2023-01-25T19:44:15.362Z,87.83
2023-01-25T19:46:43.605Z,87.79
2023-01-25T19:49:13.304Z,87.80
2023-01-25T19:51:45.482Z,87.80
2023-01-25T19:54:16.793Z,87.76
2023-01-25T19:56:47.059Z,87.72
2023-01-25T19:59:25.007Z,87.67
2023-01-25T20:01:53.945Z,87.61
2023-01-25T20:04:23.733Z,87.57
2023-01-25T20:06:52.739Z,87.50
2023-01-25T20:09:25.087Z,87.46
2023-01-25T20:11:54.504Z,87.47
2023-01-25T20:14:23.003Z,87.50
2023-01-25T20:16:53.182Z,87.53
2023-01-25T20:19:21.431Z,87.54
2023-01-25T20:21:49.545Z,87.57
2023-01-25T20:24:17.969Z,87.58
2023-01-25T20:26:46.316Z,87.58
2023-01-25T20:29:14.324Z,87.58
2023-01-25T20:31:46.773Z,87.58
2023-01-25T20:34:17.513Z,87.58
2023-01-25T20:36:46.038Z,87.61
2023-01-25T20:39:16.111Z,87.66
2023-01-25T20:41:44.259Z,87.63
2023-01-25T20:44:15.284Z,87.62
2023-01-25T20:46:44.038Z,87.63
2023-01-25T20:49:17.967Z,87.64
2023-01-25T20:51:46.794Z,87.67
2023-01-25T20:54:15.754Z,87.71
2023-01-25T20:56:47.835Z,87.75
2023-01-25T20:59:17.813Z,87.75
2023-01-25T21:01:46.710Z,87.77
2023-01-25T21:04:14.981Z,87.81
2023-01-25T21:06:43.052Z,87.83
2023-01-25T21:09:12.278Z,87.86
2023-01-25T21:11:40.179Z,87.86
2023-01-25T21:14:08.161Z,87.87
2023-01-25T21:16:36.059Z,87.87
2023-01-25T21:19:06.150Z,87.91
2023-01-25T21:21:34.984Z,87.94
2023-01-25T21:24:05.467Z,87.96
2023-01-25T21:26:35.219Z,88.00
2023-01-25T21:29:04.393Z,88.07
2023-01-25T21:31:35.110Z,88.12
2023-01-25T21:34:04.755Z,88.12
2023-01-25T21:36:33.183Z,88.14
2023-01-25T21:39:01.440Z,88.18
2023-01-25T21:41:33.843Z,88.22
2023-01-25T21:44:21.460Z,88.27
2023-01-25T21:47:16.259Z,88.27
2023-01-25T21:49:56.006Z,88.27
2023-01-25T21:52:23.932Z,88.27
2023-01-25T21:54:51.880Z,88.26
2023-01-25T21:57:20.608Z,88.26
2023-01-25T21:59:49.002Z,88.29
2023-01-25T22:02:17.418Z,88.28
2023-01-25T22:04:54.882Z,88.28
2023-01-25T22:07:22.870Z,88.26
2023-01-25T22:09:50.923Z,88.26
2023-01-25T22:12:19.041Z,88.26
2023-01-25T22:14:47.367Z,88.26
2023-01-25T22:17:15.453Z,88.29
2023-01-25T22:19:43.729Z,88.32
2023-01-25T22:22:11.618Z,88.35
2023-01-25T22:24:39.642Z,88.38
2023-01-25T22:27:26.324Z,88.43
2023-01-25T22:29:54.476Z,88.46
2023-01-25T22:32:22.463Z,88.46
2023-01-25T22:34:50.500Z,88.50
2023-01-25T22:37:18.491Z,88.53
2023-01-25T22:39:47.076Z,88.55
2023-01-25T22:42:15.119Z,88.59
2023-01-25T22:44:43.177Z,88.63
2023-01-25T22:47:11.212Z,88.65
2023-01-25T22:49:39.110Z,88.66
2023-01-25T22:52:07.067Z,88.68
2023-01-25T22:54:35.560Z,88.71
2023-01-25T22:57:03.502Z,88.74
2023-01-25T22:59:31.506Z,88.76
2023-01-25T23:01:59.414Z,88.79
2023-01-25T23:04:27.549Z,88.81
2023-01-25T23:07:02.873Z,88.81
2023-01-25T23:09:31.064Z,88.84
2023-01-25T23:11:59.327Z,88.86
2023-01-25T23:14:45.826Z,88.86
2023-01-25T23:17:32.534Z,88.87
2023-01-25T23:20:00.595Z,88.88
2023-01-25T23:22:28.669Z,88.88
2023-01-25T23:24:56.738Z,88.88
2023-01-25T23:27:24.837Z,88.88
2023-01-25T23:29:53.236Z,88.88
2023-01-25T23:32:21.693Z,88.88
2023-01-25T23:34:53.383Z,88.88
2023-01-25T23:37:22.138Z,88.87
2023-01-25T23:39:50.586Z,88.86
2023-01-25T23:42:19.129Z,88.87
2023-01-25T23:44:47.247Z,88.87
2023-01-25T23:47:15.549Z,88.87
2023-01-25T23:49:43.632Z,88.89
2023-01-25T23:52:11.574Z,88.90
2023-01-25T23:54:39.763Z,88.91
2023-01-25T23:57:07.823Z,88.93
2023-01-25T23:59:35.690Z,88.94
